createdAt,value
2022-07-29T00:00:18.152Z,71.6
2022-07-29T00:02:18.058Z,71.7
2022-07-29T00:04:18.518Z,71.1
2022-07-29T00:06:18.104Z,71.3
2022-07-29T00:08:18.092Z,71.3
2022-07-29T00:10:18.094Z,71.5
2022-07-29T00:12:18.121Z,71.6
2022-07-29T00:14:18.470Z,71.7
2022-07-29T00:16:18.270Z,72.1
2022-07-29T00:18:18.129Z,72.2
2022-07-29T00:20:18.112Z,72.1
2022-07-29T00:22:18.098Z,72.3
2022-07-29T00:24:18.529Z,72.4
2022-07-29T00:26:18.149Z,72.9
2022-07-29T00:28:18.124Z,72.6
2022-07-29T00:30:18.106Z,72.7
2022-07-29T00:32:18.135Z,72.6
2022-07-29T00:34:18.397Z,72.6
2022-07-29T00:36:18.124Z,72.6
2022-07-29T00:38:18.149Z,72.6
2022-07-29T00:40:18.117Z,72.7
2022-07-29T00:42:18.180Z,72.7
2022-07-29T00:44:18.508Z,72.6
2022-07-29T00:46:18.236Z,72.7
2022-07-29T00:48:18.162Z,72.5
2022-07-29T00:50:18.280Z,72.5
2022-07-29T00:52:18.173Z,72.5
2022-07-29T00:54:18.639Z,72.4
2022-07-29T00:56:18.152Z,72.3
2022-07-29T00:58:18.169Z,72.3
2022-07-29T01:00:18.146Z,72.3
2022-07-29T01:02:18.246Z,72.3
2022-07-29T01:04:18.656Z,72.6
2022-07-29T01:06:18.204Z,72.3
2022-07-29T01:08:18.197Z,72.6
2022-07-29T01:10:18.196Z,72.6
2022-07-29T01:12:18.221Z,72.6
2022-07-29T01:14:18.534Z,72.7
2022-07-29T01:16:18.275Z,72.9
2022-07-29T01:18:18.307Z,72.8
2022-07-29T01:20:18.215Z,72.7
2022-07-29T01:22:18.237Z,72.5
2022-07-29T01:24:18.628Z,72.3
2022-07-29T01:26:20.461Z,72.4
2022-07-29T01:28:18.210Z,72.5
2022-07-29T01:30:18.214Z,72.3
2022-07-29T01:32:28.998Z,71.7
2022-07-29T01:34:18.789Z,71.5
2022-07-29T01:36:18.238Z,71.5
2022-07-29T01:38:18.240Z,71.5
2022-07-29T01:40:18.362Z,71.7
2022-07-29T01:42:18.223Z,71.8
2022-07-29T01:44:18.870Z,71.6
2022-07-29T01:46:18.287Z,71.3
2022-07-29T01:48:18.258Z,71.2
2022-07-29T01:50:18.238Z,70.9
2022-07-29T01:52:19.340Z,70.7
2022-07-29T01:54:18.751Z,70.7
2022-07-29T01:56:18.259Z,70.3
2022-07-29T01:58:18.273Z,70.4
2022-07-29T02:00:18.348Z,70.3
2022-07-29T02:02:18.340Z,70.1
2022-07-29T02:04:26.622Z,70.0
2022-07-29T02:06:18.263Z,69.9
2022-07-29T02:08:18.286Z,69.6
2022-07-29T02:10:18.259Z,69.5
2022-07-29T02:12:18.480Z,69.3
2022-07-29T02:14:18.514Z,69.2
2022-07-29T02:16:18.341Z,69.1
2022-07-29T02:18:18.273Z,69.2
2022-07-29T02:22:19.020Z,69.1
2022-07-29T02:24:19.298Z,69.6
2022-07-29T02:26:19.022Z,69.5
2022-07-29T02:28:19.032Z,69.7
2022-07-29T02:30:19.040Z,69.9
2022-07-29T02:32:19.033Z,70.1
2022-07-29T02:34:20.076Z,70.3
2022-07-29T02:36:19.041Z,70.1
2022-07-29T02:38:19.045Z,70.0
2022-07-29T02:40:19.027Z,69.8
2022-07-29T02:42:19.031Z,69.7
2022-07-29T02:44:19.624Z,69.6
2022-07-29T02:46:29.104Z,69.6
2022-07-29T02:48:19.001Z,69.3
2022-07-29T02:50:19.056Z,69.4
2022-07-29T02:52:18.998Z,69.5
2022-07-29T02:54:19.374Z,69.3
2022-07-29T02:56:18.999Z,69.5
2022-07-29T02:58:18.999Z,69.4
2022-07-29T03:00:19.074Z,69.3
2022-07-29T03:02:19.235Z,69.2
2022-07-29T03:04:19.648Z,69.6
2022-07-29T03:06:28.747Z,69.3
2022-07-29T03:08:19.069Z,69.5
2022-07-29T03:10:19.069Z,69.4
2022-07-29T03:12:19.067Z,69.8
2022-07-29T03:14:19.618Z,69.7
2022-07-29T03:16:19.146Z,69.8
2022-07-29T03:18:19.069Z,70.0
2022-07-29T03:20:19.086Z,70.2
2022-07-29T03:22:19.143Z,70.1
2022-07-29T03:24:19.471Z,70.1
2022-07-29T03:26:19.080Z,69.9
2022-07-29T03:28:19.234Z,69.4
2022-07-29T03:30:22.131Z,70.1
2022-07-29T03:32:23.850Z,69.7
2022-07-29T03:34:19.508Z,69.9
2022-07-29T03:36:19.520Z,70.0
2022-07-29T03:38:19.267Z,70.4
2022-07-29T03:40:19.493Z,70.8
2022-07-29T03:42:19.487Z,70.8
2022-07-29T03:44:19.517Z,70.9
2022-07-29T03:46:19.494Z,71.0
2022-07-29T03:48:19.472Z,70.8
2022-07-29T03:50:19.521Z,70.9
2022-07-29T03:52:19.487Z,70.9
2022-07-29T03:54:19.809Z,70.8
2022-07-29T03:56:19.413Z,70.9
2022-07-29T03:58:19.488Z,70.9
2022-07-29T04:00:19.505Z,70.9
2022-07-29T04:02:22.940Z,70.6
2022-07-29T04:04:19.954Z,70.7
2022-07-29T04:06:19.126Z,71.0
2022-07-29T04:08:19.147Z,71.8
2022-07-29T04:10:30.076Z,71.0
2022-07-29T04:12:19.178Z,70.9
2022-07-29T04:14:19.331Z,70.4
2022-07-29T04:16:19.231Z,69.5
2022-07-29T04:18:19.132Z,69.4
2022-07-29T04:20:19.186Z,69.8
2022-07-29T04:22:19.164Z,68.3
2022-07-29T04:24:19.495Z,68.2
2022-07-29T04:26:19.146Z,67.8
2022-07-29T04:28:19.137Z,68.3
2022-07-29T04:30:19.182Z,68.1
2022-07-29T04:32:19.328Z,67.7
2022-07-29T04:34:20.017Z,67.5
2022-07-29T04:36:28.685Z,67.4
2022-07-29T04:38:19.273Z,67.6
2022-07-29T04:40:19.267Z,67.7
2022-07-29T04:42:19.191Z,67.9
2022-07-29T04:44:19.644Z,67.9
2022-07-29T04:46:19.231Z,67.7
2022-07-29T04:48:19.174Z,68.0
2022-07-29T04:50:19.156Z,67.7
2022-07-29T04:52:19.245Z,67.2
2022-07-29T04:54:19.610Z,67.2
2022-07-29T04:56:19.158Z,67.1
2022-07-29T04:58:19.178Z,67.2
2022-07-29T05:00:19.110Z,67.4
2022-07-29T05:02:19.189Z,67.1
2022-07-29T05:04:19.976Z,67.0
2022-07-29T05:06:19.190Z,67.2
2022-07-29T05:08:19.169Z,67.2
2022-07-29T05:10:19.170Z,67.2
2022-07-29T05:12:19.164Z,67.1
2022-07-29T05:14:19.621Z,67.2
2022-07-29T05:16:19.241Z,67.2
2022-07-29T05:18:19.170Z,67.0
2022-07-29T05:20:19.150Z,66.6
2022-07-29T05:22:19.209Z,67.0
2022-07-29T05:24:19.890Z,66.1
2022-07-29T05:26:19.189Z,66.3
2022-07-29T05:28:19.224Z,66.1
2022-07-29T05:30:19.177Z,65.9
2022-07-29T05:32:19.180Z,65.6
2022-07-29T05:34:19.497Z,65.6
2022-07-29T05:36:19.192Z,65.2
2022-07-29T05:38:19.165Z,65.0
2022-07-29T05:40:19.194Z,64.8
2022-07-29T05:42:19.198Z,64.8
2022-07-29T05:44:19.486Z,64.4
2022-07-29T05:46:19.265Z,63.6
2022-07-29T05:48:19.222Z,63.7
2022-07-29T05:50:19.193Z,63.5
2022-07-29T05:52:19.226Z,63.6
2022-07-29T05:54:19.422Z,63.4
2022-07-29T05:56:19.210Z,63.3
2022-07-29T05:58:19.270Z,63.6
2022-07-29T06:00:19.195Z,63.2
2022-07-29T06:02:19.249Z,63.3
2022-07-29T06:04:20.114Z,62.7
2022-07-29T06:06:19.215Z,62.3
2022-07-29T06:08:19.224Z,62.6
2022-07-29T06:10:19.204Z,62.9
2022-07-29T06:12:19.225Z,62.4
2022-07-29T06:14:19.674Z,61.9
2022-07-29T06:16:30.231Z,62.2
2022-07-29T06:18:19.226Z,62.0
2022-07-29T06:20:19.240Z,61.5
2022-07-29T06:22:19.212Z,61.2
2022-07-29T06:24:19.798Z,61.0
2022-07-29T06:26:19.239Z,59.8
2022-07-29T06:28:19.551Z,60.2
2022-07-29T06:30:19.249Z,60.1
2022-07-29T06:32:19.226Z,59.2
2022-07-29T06:34:19.848Z,58.8
2022-07-29T06:36:19.257Z,58.0
2022-07-29T06:38:30.794Z,58.2
2022-07-29T06:40:19.457Z,58.0
2022-07-29T06:42:19.509Z,58.2
2022-07-29T06:44:19.702Z,58.3
2022-07-29T06:46:19.422Z,58.3
2022-07-29T06:48:19.275Z,58.3
2022-07-29T06:50:19.396Z,58.9
2022-07-29T06:52:19.409Z,58.6
2022-07-29T06:54:19.419Z,58.3
2022-07-29T06:56:19.261Z,58.3
2022-07-29T06:58:19.309Z,57.5
2022-07-29T07:00:19.299Z,57.4
2022-07-29T07:02:19.326Z,57.4
2022-07-29T07:04:19.669Z,57.0
2022-07-29T07:06:19.296Z,56.2
2022-07-29T07:08:19.270Z,56.6
2022-07-29T07:10:19.270Z,55.8
2022-07-29T07:12:19.258Z,55.6
2022-07-29T07:14:19.797Z,55.3
2022-07-29T07:16:19.393Z,56.4
2022-07-29T07:18:19.315Z,56.3
2022-07-29T07:20:19.298Z,56.2
2022-07-29T07:22:19.238Z,56.1
2022-07-29T07:24:19.518Z,55.9
2022-07-29T07:26:19.277Z,55.4
2022-07-29T07:28:19.298Z,54.9
2022-07-29T07:30:19.291Z,54.7
2022-07-29T07:32:19.543Z,54.6
2022-07-29T07:34:28.492Z,54.5
2022-07-29T07:36:19.330Z,54.6
2022-07-29T07:38:19.298Z,54.8
2022-07-29T07:40:19.308Z,54.5
2022-07-29T07:42:19.301Z,54.4
2022-07-29T07:44:19.681Z,54.6
2022-07-29T07:46:19.335Z,54.3
2022-07-29T07:48:16.780Z,54.9
2022-07-29T07:50:19.081Z,54.0
2022-07-29T07:52:16.717Z,53.4
2022-07-29T07:54:17.091Z,53.9
2022-07-29T07:56:16.746Z,54.0
2022-07-29T07:58:16.769Z,53.8
2022-07-29T08:00:16.759Z,53.0
2022-07-29T08:02:17.007Z,52.8
2022-07-29T08:04:17.041Z,53.0
2022-07-29T08:06:16.787Z,53.2
2022-07-29T08:08:16.761Z,53.1
2022-07-29T08:10:16.786Z,52.9
2022-07-29T08:12:16.810Z,52.5
2022-07-29T08:14:17.003Z,52.6
2022-07-29T08:16:16.962Z,51.7
2022-07-29T08:18:16.780Z,52.2
2022-07-29T08:20:16.776Z,52.7
2022-07-29T08:22:16.799Z,52.4
2022-07-29T08:24:16.779Z,52.3
2022-07-29T08:26:16.781Z,51.9
2022-07-29T08:28:16.793Z,52.1
2022-07-29T08:30:16.793Z,51.8
2022-07-29T08:32:36.987Z,52.3
2022-07-29T08:34:16.782Z,52.2
2022-07-29T08:36:16.797Z,51.7
2022-07-29T08:38:16.808Z,52.1
2022-07-29T08:40:16.829Z,51.7
2022-07-29T08:42:16.784Z,52.0
2022-07-29T08:44:16.807Z,52.4
2022-07-29T08:46:16.884Z,51.2
2022-07-29T08:48:16.798Z,51.4
2022-07-29T08:50:16.828Z,51.8
2022-07-29T08:52:16.814Z,52.7
2022-07-29T08:54:16.869Z,52.5
2022-07-29T08:56:17.063Z,52.3
2022-07-29T08:58:16.817Z,52.5
2022-07-29T09:00:16.849Z,52.5
2022-07-29T09:02:16.856Z,52.7
2022-07-29T09:04:16.831Z,52.5
2022-07-29T09:06:16.901Z,52.5
2022-07-29T09:08:16.830Z,53.1
2022-07-29T09:10:16.843Z,52.3
2022-07-29T09:12:28.877Z,52.1
2022-07-29T09:14:16.840Z,51.4
2022-07-29T09:16:37.218Z,51.7
2022-07-29T09:18:19.489Z,51.4
2022-07-29T09:20:16.853Z,51.6
2022-07-29T09:22:16.857Z,51.3
2022-07-29T09:24:16.850Z,51.2
2022-07-29T09:26:16.852Z,51.5
2022-07-29T09:28:16.862Z,51.3
2022-07-29T09:30:28.806Z,50.8
2022-07-29T09:32:16.892Z,51.7
2022-07-29T09:34:16.871Z,50.1
2022-07-29T09:36:16.861Z,49.7
2022-07-29T09:38:16.921Z,50.0
2022-07-29T09:40:16.966Z,50.0
2022-07-29T09:42:17.117Z,50.7
2022-07-29T09:44:16.901Z,50.2
2022-07-29T09:46:16.920Z,50.2
2022-07-29T09:48:16.905Z,50.4
2022-07-29T09:50:16.941Z,50.0
2022-07-29T09:52:16.888Z,50.2
2022-07-29T09:54:16.886Z,50.4
2022-07-29T09:56:16.847Z,50.2
2022-07-29T09:58:16.889Z,49.7
2022-07-29T10:00:16.880Z,49.8
2022-07-29T10:02:21.932Z,50.5
2022-07-29T10:04:16.883Z,49.5
2022-07-29T10:06:16.888Z,50.3
2022-07-29T10:08:17.131Z,49.1
2022-07-29T10:10:16.895Z,49.2
2022-07-29T10:12:17.821Z,48.6
2022-07-29T10:14:16.986Z,49.0
2022-07-29T10:16:16.967Z,48.2
2022-07-29T10:18:17.115Z,48.0
2022-07-29T10:20:17.047Z,47.5
2022-07-29T10:22:31.159Z,48.1
2022-07-29T10:24:16.931Z,48.4
2022-07-29T10:26:16.985Z,48.5
2022-07-29T10:28:17.113Z,49.1
2022-07-29T10:30:16.971Z,49.5
2022-07-29T10:32:16.955Z,49.3
2022-07-29T10:34:16.933Z,49.2
2022-07-29T10:36:17.034Z,49.2
2022-07-29T10:38:17.458Z,49.1
2022-07-29T10:40:16.909Z,49.1
2022-07-29T10:42:19.921Z,49.7
2022-07-29T10:44:17.419Z,49.7
2022-07-29T10:46:16.975Z,49.8
2022-07-29T10:48:16.972Z,49.6
2022-07-29T10:50:17.383Z,48.9
2022-07-29T10:52:17.167Z,49.0
2022-07-29T10:54:16.926Z,48.6
2022-07-29T10:56:17.462Z,48.2
2022-07-29T10:58:18.001Z,47.8
2022-07-29T11:00:17.350Z,48.5
2022-07-29T11:02:40.892Z,47.1
2022-07-29T11:04:16.942Z,47.3
2022-07-29T11:06:16.962Z,47.5
2022-07-29T11:08:20.021Z,47.0
2022-07-29T11:10:17.052Z,46.7
2022-07-29T11:12:17.024Z,46.5
2022-07-29T11:14:16.955Z,45.5
2022-07-29T11:16:16.971Z,45.1
2022-07-29T11:18:17.444Z,44.9
2022-07-29T11:20:17.359Z,44.7
2022-07-29T11:22:17.002Z,43.3
2022-07-29T11:25:50.048Z,42.8
2022-07-29T11:26:18.825Z,41.7
2022-07-29T11:28:22.006Z,41.4
2022-07-29T11:30:17.020Z,41.9
2022-07-29T11:32:18.369Z,41.8
2022-07-29T11:34:17.014Z,41.9
2022-07-29T11:36:17.131Z,41.5
2022-07-29T11:38:16.952Z,40.4
2022-07-29T11:40:18.292Z,40.5
2022-07-29T11:42:17.052Z,40.0
2022-07-29T11:44:17.976Z,40.3
2022-07-29T11:46:16.939Z,40.2
2022-07-29T11:48:27.911Z,37.4
2022-07-29T11:50:17.003Z,37.4
2022-07-29T11:52:16.955Z,37.5
2022-07-29T11:54:16.959Z,36.7
2022-07-29T11:56:17.192Z,37.2
2022-07-29T11:58:16.943Z,37.7
2022-07-29T12:00:18.671Z,38.1
2022-07-29T12:02:52.264Z,38.6
2022-07-29T12:04:16.984Z,38.2
2022-07-29T12:06:18.265Z,37.7
2022-07-29T12:07:01.183Z,42.8
2022-07-29T12:08:16.975Z,36.1
2022-07-29T12:10:19.790Z,38.0
2022-07-29T12:12:16.969Z,36.0
2022-07-29T12:14:16.958Z,35.8
2022-07-29T12:16:26.021Z,36.4
2022-07-29T12:18:18.366Z,36.0
2022-07-29T12:20:16.986Z,35.8
2022-07-29T12:22:16.986Z,36.1
2022-07-29T12:24:16.991Z,36.1
2022-07-29T12:26:21.711Z,36.2
2022-07-29T12:28:18.590Z,36.4
2022-07-29T12:30:17.492Z,35.7
2022-07-29T12:32:19.529Z,36.0
2022-07-29T12:34:17.004Z,37.4
2022-07-29T12:36:17.869Z,37.5
2022-07-29T12:38:17.004Z,37.5
2022-07-29T12:40:17.004Z,38.0
2022-07-29T12:42:18.472Z,37.5
2022-07-29T12:44:17.025Z,36.7
2022-07-29T12:46:17.070Z,37.5
2022-07-29T12:48:16.999Z,36.0
2022-07-29T12:50:17.024Z,36.8
2022-07-29T12:52:17.025Z,36.1
2022-07-29T12:54:17.027Z,35.5
2022-07-29T12:56:40.609Z,36.5
2022-07-29T12:58:17.021Z,36.7
2022-07-29T13:00:17.241Z,37.2
2022-07-29T13:02:17.111Z,36.8
2022-07-29T13:04:17.061Z,37.1
2022-07-29T13:06:17.042Z,37.4
2022-07-29T13:08:20.144Z,36.9
2022-07-29T13:10:17.063Z,37.4
2022-07-29T13:12:17.076Z,37.4
2022-07-29T13:14:17.175Z,38.0
2022-07-29T13:16:17.135Z,37.4
2022-07-29T13:18:19.411Z,37.7
2022-07-29T13:20:17.105Z,37.7
2022-07-29T13:22:17.105Z,38.2
2022-07-29T13:24:19.912Z,36.9
2022-07-29T13:26:17.207Z,37.0
2022-07-29T13:28:17.085Z,36.3
2022-07-29T13:30:17.176Z,36.2
2022-07-29T13:32:17.108Z,37.4
2022-07-29T13:34:17.075Z,36.9
2022-07-29T13:36:17.097Z,37.1
2022-07-29T13:38:17.103Z,36.5
2022-07-29T13:40:17.586Z,36.1
2022-07-29T13:42:17.344Z,35.7
2022-07-29T13:44:17.392Z,35.0
2022-07-29T13:46:17.490Z,34.5
2022-07-29T13:48:17.132Z,33.9
2022-07-29T13:50:17.109Z,34.0
2022-07-29T13:52:17.119Z,34.9
2022-07-29T13:54:17.113Z,35.0
2022-07-29T13:56:17.142Z,35.8
2022-07-29T13:58:17.136Z,36.1
2022-07-29T14:00:17.149Z,35.8
2022-07-29T14:02:17.101Z,36.3
2022-07-29T14:04:17.139Z,35.8
2022-07-29T14:06:17.093Z,35.3
2022-07-29T14:08:17.096Z,35.1
2022-07-29T14:10:20.037Z,35.8
2022-07-29T14:12:17.111Z,35.5
2022-07-29T14:14:17.111Z,35.4
2022-07-29T14:16:17.363Z,34.6
2022-07-29T14:18:17.072Z,34.7
2022-07-29T14:20:17.185Z,34.2
2022-07-29T14:22:17.163Z,35.7
2022-07-29T14:24:21.444Z,35.1
2022-07-29T14:26:21.707Z,34.7
2022-07-29T14:28:17.094Z,35.0
2022-07-29T14:30:17.076Z,35.9
2022-07-29T14:32:17.165Z,35.5
2022-07-29T14:34:17.074Z,35.8
2022-07-29T14:36:17.087Z,35.5
2022-07-29T14:38:17.103Z,36.1
2022-07-29T14:40:17.105Z,36.0
2022-07-29T14:42:17.081Z,36.2
2022-07-29T14:44:17.637Z,36.5
2022-07-29T14:46:17.144Z,36.0
2022-07-29T14:48:17.116Z,36.7
2022-07-29T14:50:17.086Z,36.9
2022-07-29T14:52:17.084Z,36.0
2022-07-29T14:54:17.154Z,35.4
2022-07-29T14:56:35.929Z,35.9
2022-07-29T14:58:17.112Z,35.5
2022-07-29T15:00:17.125Z,35.7
2022-07-29T15:02:17.182Z,35.3
2022-07-29T15:04:17.179Z,35.7
2022-07-29T15:06:17.184Z,36.2
2022-07-29T15:08:17.141Z,35.8
2022-07-29T15:10:17.143Z,35.8
2022-07-29T15:12:17.141Z,35.8
2022-07-29T15:14:17.163Z,36.1
2022-07-29T15:16:17.204Z,36.0
2022-07-29T15:18:25.429Z,35.5
2022-07-29T15:20:17.142Z,35.5
2022-07-29T15:22:17.156Z,35.4
2022-07-29T15:24:17.479Z,35.4
2022-07-29T15:26:17.168Z,35.8
2022-07-29T15:28:17.156Z,35.7
2022-07-29T15:30:33.466Z,35.8
2022-07-29T15:32:17.539Z,35.3
2022-07-29T15:34:17.515Z,35.1
2022-07-29T15:36:42.124Z,33.8
2022-07-29T15:38:17.497Z,33.1
2022-07-29T15:40:17.509Z,34.5
2022-07-29T15:42:17.839Z,33.9
2022-07-29T15:44:17.483Z,34.2
2022-07-29T15:46:17.260Z,34.6
2022-07-29T15:48:17.192Z,34.2
2022-07-29T15:50:17.190Z,34.4
2022-07-29T15:52:17.197Z,34.1
2022-07-29T15:54:17.194Z,34.4
2022-07-29T15:56:17.179Z,34.9
2022-07-29T15:58:17.198Z,35.0
2022-07-29T16:00:17.191Z,35.1
2022-07-29T16:02:17.195Z,35.8
2022-07-29T16:04:17.314Z,35.4
2022-07-29T16:06:17.228Z,34.9
2022-07-29T16:08:17.202Z,35.6
2022-07-29T16:10:17.232Z,35.2
2022-07-29T16:12:17.194Z,35.2
2022-07-29T16:14:17.206Z,34.8
2022-07-29T16:16:17.260Z,33.9
2022-07-29T16:18:17.249Z,34.1
2022-07-29T16:20:17.286Z,34.8
2022-07-29T16:22:17.234Z,34.3
2022-07-29T16:24:17.232Z,33.8
2022-07-29T16:26:17.245Z,34.4
2022-07-29T16:28:17.253Z,34.8
2022-07-29T16:30:17.231Z,35.4
2022-07-29T16:32:22.362Z,35.1
2022-07-29T16:34:17.236Z,34.5
2022-07-29T16:36:18.511Z,34.2
2022-07-29T16:38:17.182Z,34.2
2022-07-29T16:40:17.180Z,34.9
2022-07-29T16:42:36.890Z,35.5
2022-07-29T16:44:17.204Z,35.6
2022-07-29T16:46:18.890Z,35.8
2022-07-29T16:48:18.686Z,36.1
2022-07-29T16:50:17.195Z,36.2
2022-07-29T16:52:18.307Z,36.5
2022-07-29T16:54:17.302Z,36.2
2022-07-29T16:56:17.206Z,36.2
2022-07-29T16:58:17.279Z,36.4
2022-07-29T17:00:17.241Z,36.1
2022-07-29T17:02:17.610Z,36.1
2022-07-29T17:04:17.442Z,35.9
2022-07-29T17:06:17.259Z,36.1
2022-07-29T17:08:17.262Z,36.3
2022-07-29T17:10:17.252Z,36.1
2022-07-29T17:12:17.251Z,36.0
2022-07-29T17:14:17.260Z,35.9
2022-07-29T17:16:17.309Z,36.3
2022-07-29T17:18:17.250Z,37.0
2022-07-29T17:20:17.575Z,37.2
2022-07-29T17:22:19.576Z,37.2
2022-07-29T17:24:17.270Z,37.2
2022-07-29T17:26:17.330Z,37.2
2022-07-29T17:28:17.261Z,37.3
2022-07-29T17:30:17.276Z,37.3
2022-07-29T17:32:17.291Z,37.2
2022-07-29T17:34:17.280Z,37.5
2022-07-29T17:36:17.352Z,37.3
2022-07-29T17:38:17.272Z,37.2
2022-07-29T17:40:17.273Z,37.7
2022-07-29T17:42:17.284Z,38.1
2022-07-29T17:44:17.281Z,38.6
2022-07-29T17:46:17.343Z,38.5
2022-07-29T17:48:17.371Z,38.4
2022-07-29T17:50:17.328Z,38.5
2022-07-29T17:52:17.287Z,38.5
2022-07-29T17:54:17.285Z,38.5
2022-07-29T17:56:17.286Z,38.6
2022-07-29T17:58:17.279Z,38.7
2022-07-29T18:00:17.293Z,38.7
2022-07-29T18:02:17.527Z,38.9
2022-07-29T18:04:17.310Z,39.3
2022-07-29T18:06:17.324Z,39.8
2022-07-29T18:08:17.323Z,40.2
2022-07-29T18:10:17.297Z,40.2
2022-07-29T18:12:17.339Z,40.8
2022-07-29T18:14:17.321Z,41.3
2022-07-29T18:16:17.403Z,41.6
2022-07-29T18:18:17.315Z,41.5
2022-07-29T18:20:17.402Z,41.9
2022-07-29T18:22:17.347Z,41.9
2022-07-29T18:24:17.325Z,42.0
2022-07-29T18:26:17.329Z,42.2
2022-07-29T18:28:17.323Z,42.1
2022-07-29T18:30:17.329Z,42.3
2022-07-29T18:32:17.320Z,42.1
2022-07-29T18:34:17.326Z,42.3
2022-07-29T18:36:17.339Z,42.7
2022-07-29T18:38:17.318Z,42.9
2022-07-29T18:40:17.331Z,42.8
2022-07-29T18:42:17.347Z,43.0
2022-07-29T18:44:17.386Z,43.1
2022-07-29T18:46:17.396Z,43.5
2022-07-29T18:48:17.340Z,43.7
2022-07-29T18:50:17.323Z,44.1
2022-07-29T18:52:17.343Z,44.1
2022-07-29T18:54:17.441Z,44.3
2022-07-29T18:56:17.354Z,44.6
2022-07-29T18:58:17.558Z,44.7
2022-07-29T19:00:17.528Z,44.9
2022-07-29T19:02:18.309Z,45.1
2022-07-29T19:04:17.405Z,45.1
2022-07-29T19:06:17.432Z,45.1
2022-07-29T19:08:17.379Z,45.1
2022-07-29T19:10:17.392Z,45.3
2022-07-29T19:12:17.414Z,45.1
2022-07-29T19:14:17.360Z,45.2
2022-07-29T19:16:17.440Z,45.6
2022-07-29T19:18:17.367Z,45.4
2022-07-29T19:20:17.400Z,45.6
2022-07-29T19:22:17.448Z,45.6
2022-07-29T19:24:17.588Z,45.6
2022-07-29T19:26:20.654Z,45.7
2022-07-29T19:28:17.407Z,45.7
2022-07-29T19:30:17.457Z,45.9
2022-07-29T19:32:24.637Z,45.9
2022-07-29T19:34:17.426Z,46.0
2022-07-29T19:36:17.414Z,46.1
2022-07-29T19:38:17.410Z,46.1
2022-07-29T19:40:17.407Z,46.2
2022-07-29T19:42:17.448Z,46.1
2022-07-29T19:44:18.048Z,46.1
2022-07-29T19:46:17.483Z,46.2
2022-07-29T19:48:18.386Z,46.1
2022-07-29T19:50:17.404Z,46.3
2022-07-29T19:52:17.537Z,46.1
2022-07-29T19:54:17.488Z,46.2
2022-07-29T19:56:18.286Z,46.2
2022-07-29T19:58:22.601Z,46.1
2022-07-29T20:00:17.416Z,46.2
2022-07-29T20:02:17.534Z,46.2
2022-07-29T20:04:17.685Z,46.2
2022-07-29T20:06:17.542Z,46.3
2022-07-29T20:08:17.586Z,46.6
2022-07-29T20:10:17.688Z,46.4
2022-07-29T20:12:17.518Z,46.6
2022-07-29T20:14:17.583Z,46.7
2022-07-29T20:16:17.583Z,46.6
2022-07-29T20:18:17.496Z,46.8
2022-07-29T20:20:17.605Z,46.9
2022-07-29T20:22:20.972Z,47.0
2022-07-29T20:24:17.541Z,47.1
2022-07-29T20:26:17.662Z,47.4
2022-07-29T20:28:17.652Z,47.5
2022-07-29T20:30:17.763Z,47.6
2022-07-29T20:32:17.558Z,47.8
2022-07-29T20:34:17.543Z,48.0
2022-07-29T20:36:25.811Z,48.2
2022-07-29T20:38:22.571Z,48.7
2022-07-29T20:40:17.616Z,49.2
2022-07-29T20:42:17.495Z,49.4
2022-07-29T20:44:17.534Z,49.9
2022-07-29T20:46:17.651Z,50.3
2022-07-29T20:48:17.480Z,50.8
2022-07-29T20:50:17.443Z,51.0
2022-07-29T20:52:17.559Z,51.4
2022-07-29T20:54:17.740Z,51.6
2022-07-29T20:56:17.499Z,51.9
2022-07-29T20:58:17.907Z,52.1
2022-07-29T21:00:17.639Z,52.2
2022-07-29T21:02:17.521Z,53.0
2022-07-29T21:04:17.588Z,53.0
2022-07-29T21:06:17.507Z,52.3
2022-07-29T21:08:17.491Z,52.4
2022-07-29T21:10:17.499Z,52.3
2022-07-29T21:12:17.590Z,52.3
2022-07-29T21:14:17.493Z,52.1
2022-07-29T21:16:17.628Z,52.1
2022-07-29T21:18:17.486Z,52.2
2022-07-29T21:20:17.598Z,52.4
2022-07-29T21:22:17.529Z,52.4
2022-07-29T21:24:17.500Z,52.8
2022-07-29T21:26:17.511Z,52.9
2022-07-29T21:28:17.521Z,53.2
2022-07-29T21:30:17.683Z,53.1
2022-07-29T21:32:29.868Z,53.4
2022-07-29T21:34:17.529Z,53.5
2022-07-29T21:36:52.814Z,53.4
2022-07-29T21:38:17.530Z,53.7
2022-07-29T21:40:17.586Z,53.8
2022-07-29T21:42:17.696Z,53.7
2022-07-29T21:44:17.548Z,53.8
2022-07-29T21:46:17.577Z,53.6
2022-07-29T21:48:17.925Z,53.6
2022-07-29T21:50:17.553Z,53.4
2022-07-29T21:52:18.226Z,53.4
2022-07-29T21:54:17.551Z,53.5
2022-07-29T21:56:17.988Z,53.6
2022-07-29T21:58:17.534Z,53.3
2022-07-29T22:00:17.545Z,53.3
2022-07-29T22:02:17.611Z,53.3
2022-07-29T22:04:17.680Z,53.2
2022-07-29T22:06:17.959Z,53.1
2022-07-29T22:08:17.779Z,53.0
2022-07-29T22:10:17.569Z,52.8
2022-07-29T22:12:17.578Z,52.9
2022-07-29T22:14:17.648Z,52.7
2022-07-29T22:16:19.133Z,52.7
2022-07-29T22:18:20.737Z,52.9
2022-07-29T22:20:17.762Z,52.9
2022-07-29T22:22:17.783Z,52.7
2022-07-29T22:24:17.624Z,52.9
2022-07-29T22:26:17.574Z,53.0
2022-07-29T22:28:17.596Z,53.0
2022-07-29T22:30:17.616Z,53.0
2022-07-29T22:32:17.601Z,53.0
2022-07-29T22:34:17.569Z,53.1
2022-07-29T22:36:17.609Z,53.1
2022-07-29T22:38:17.682Z,53.1
2022-07-29T22:40:17.598Z,53.1
2022-07-29T22:42:18.123Z,53.3
2022-07-29T22:44:17.596Z,53.3
2022-07-29T22:46:17.901Z,53.5
2022-07-29T22:48:17.601Z,53.5
2022-07-29T22:50:17.731Z,53.8
2022-07-29T22:52:17.616Z,53.8
2022-07-29T22:54:17.593Z,54.0
2022-07-29T22:56:17.634Z,54.3
2022-07-29T22:58:17.603Z,54.3
2022-07-29T23:00:17.607Z,54.5
2022-07-29T23:02:17.639Z,54.9
2022-07-29T23:04:17.705Z,55.0
2022-07-29T23:06:17.621Z,55.1
2022-07-29T23:08:17.854Z,55.3
2022-07-29T23:10:17.801Z,55.4
2022-07-29T23:12:17.772Z,55.3
2022-07-29T23:14:17.762Z,55.5
2022-07-29T23:16:26.277Z,55.6
2022-07-29T23:18:17.797Z,55.6
2022-07-29T23:20:17.643Z,55.4
2022-07-29T23:22:18.581Z,55.5
2022-07-29T23:24:17.659Z,55.9
2022-07-29T23:26:17.665Z,56.0
2022-07-29T23:28:17.661Z,55.9
2022-07-29T23:30:17.663Z,56.0
2022-07-29T23:32:17.677Z,56.1
2022-07-29T23:34:17.675Z,56.1
2022-07-29T23:36:17.691Z,56.2
2022-07-29T23:38:17.677Z,56.3
2022-07-29T23:40:17.680Z,56.2
2022-07-29T23:42:17.687Z,56.4
2022-07-29T23:44:17.682Z,56.5
2022-07-29T23:46:17.701Z,56.6
2022-07-29T23:48:17.688Z,56.7
2022-07-29T23:50:17.701Z,56.9
2022-07-29T23:52:17.710Z,57.2
2022-07-29T23:54:17.660Z,57.5
2022-07-29T23:56:17.685Z,57.5
2022-07-29T23:58:17.669Z,57.7
